sensor_id;sensor_type;location;lat;lon;timestamp;P1;durP1;ratioP1;P2;durP2;ratioP2
39502;SDS011;26970;49.900;10.774;2023-01-23T00:00:34;20.92;;;10.80;;
39502;SDS011;26970;49.900;10.774;2023-01-23T00:03:02;23.65;;;11.02;;
39502;SDS011;26970;49.900;10.774;2023-01-23T00:05:27;22.20;;;10.18;;
39502;SDS011;26970;49.900;10.774;2023-01-23T00:07:53;20.83;;;9.93;;
39502;SDS011;26970;49.900;10.774;2023-01-23T00:10:18;17.20;;;9.13;;
39502;SDS011;26970;49.900;10.774;2023-01-23T00:12:44;21.00;;;9.98;;
39502;SDS011;26970;49.900;10.774;2023-01-23T00:15:13;18.60;;;9.50;;
39502;SDS011;26970;49.900;10.774;2023-01-23T00:17:39;21.42;;;10.15;;
39502;SDS011;26970;49.900;10.774;2023-01-23T00:20:06;14.32;;;7.35;;
39502;SDS011;26970;49.900;10.774;2023-01-23T00:22:33;19.52;;;9.63;;
39502;SDS011;26970;49.900;10.774;2023-01-23T00:24:59;16.25;;;9.15;;
39502;SDS011;26970;49.900;10.774;2023-01-23T00:27:24;18.38;;;9.45;;
39502;SDS011;26970;49.900;10.774;2023-01-23T00:29:53;17.67;;;8.18;;
39502;SDS011;26970;49.900;10.774;2023-01-23T00:32:19;17.92;;;9.02;;
39502;SDS011;26970;49.900;10.774;2023-01-23T00:34:45;17.42;;;9.10;;
39502;SDS011;26970;49.900;10.774;2023-01-23T00:37:11;18.10;;;8.55;;
39502;SDS011;26970;49.900;10.774;2023-01-23T00:39:37;17.63;;;8.48;;
39502;SDS011;26970;49.900;10.774;2023-01-23T00:42:03;17.17;;;8.73;;
39502;SDS011;26970;49.900;10.774;2023-01-23T00:44:29;15.73;;;8.25;;
39502;SDS011;26970;49.900;10.774;2023-01-23T00:46:55;15.00;;;8.25;;
39502;SDS011;26970;49.900;10.774;2023-01-23T00:49:21;16.40;;;7.95;;
39502;SDS011;26970;49.900;10.774;2023-01-23T00:51:47;16.83;;;8.65;;
39502;SDS011;26970;49.900;10.774;2023-01-23T00:54:12;17.83;;;8.40;;
39502;SDS011;26970;49.900;10.774;2023-01-23T00:56:38;18.25;;;8.55;;
39502;SDS011;26970;49.900;10.774;2023-01-23T00:59:04;15.30;;;8.15;;
39502;SDS011;26970;49.900;10.774;2023-01-23T01:01:29;15.20;;;8.00;;
39502;SDS011;26970;49.900;10.774;2023-01-23T01:03:57;15.23;;;7.13;;
39502;SDS011;26970;49.900;10.774;2023-01-23T01:06:23;14.52;;;7.50;;
39502;SDS011;26970;49.900;10.774;2023-01-23T01:08:49;13.05;;;7.30;;
39502;SDS011;26970;49.900;10.774;2023-01-23T01:11:15;15.43;;;7.70;;
39502;SDS011;26970;49.900;10.774;2023-01-23T01:13:41;13.52;;;7.53;;
39502;SDS011;26970;49.900;10.774;2023-01-23T01:16:08;15.40;;;7.00;;
39502;SDS011;26970;49.900;10.774;2023-01-23T01:18:34;14.45;;;7.53;;
39502;SDS011;26970;49.900;10.774;2023-01-23T01:21:00;15.02;;;6.97;;
39502;SDS011;26970;49.900;10.774;2023-01-23T01:23:30;12.93;;;6.57;;
39502;SDS011;26970;49.900;10.774;2023-01-23T01:25:59;13.82;;;7.75;;
39502;SDS011;26970;49.900;10.774;2023-01-23T01:28:26;11.90;;;6.57;;
39502;SDS011;26970;49.900;10.774;2023-01-23T01:30:54;15.35;;;7.18;;
39502;SDS011;26970;49.900;10.774;2023-01-23T01:33:20;13.27;;;7.13;;
39502;SDS011;26970;49.900;10.774;2023-01-23T01:35:48;14.13;;;7.50;;
39502;SDS011;26970;49.900;10.774;2023-01-23T01:38:13;12.00;;;6.78;;
39502;SDS011;26970;49.900;10.774;2023-01-23T01:40:39;14.48;;;7.25;;
39502;SDS011;26970;49.900;10.774;2023-01-23T01:43:07;13.32;;;7.05;;
39502;SDS011;26970;49.900;10.774;2023-01-23T01:46:01;13.77;;;7.22;;
39502;SDS011;26970;49.900;10.774;2023-01-23T01:48:46;11.68;;;6.68;;
39502;SDS011;26970;49.900;10.774;2023-01-23T01:56:37;13.55;;;7.50;;
39502;SDS011;26970;49.900;10.774;2023-01-23T01:59:09;13.80;;;7.82;;
39502;SDS011;26970;49.900;10.774;2023-01-23T02:01:36;17.30;;;8.43;;
39502;SDS011;26970;49.900;10.774;2023-01-23T02:04:03;18.77;;;8.82;;
39502;SDS011;26970;49.900;10.774;2023-01-23T02:06:29;20.45;;;8.68;;
39502;SDS011;26970;49.900;10.774;2023-01-23T02:09:07;16.35;;;9.02;;
39502;SDS011;26970;49.900;10.774;2023-01-23T02:11:38;17.45;;;8.68;;
39502;SDS011;26970;49.900;10.774;2023-01-23T02:14:04;20.08;;;9.35;;
39502;SDS011;26970;49.900;10.774;2023-01-23T02:16:32;16.33;;;7.55;;
39502;SDS011;26970;49.900;10.774;2023-01-23T02:19:05;15.82;;;7.47;;
39502;SDS011;26970;49.900;10.774;2023-01-23T02:21:38;14.77;;;7.93;;
39502;SDS011;26970;49.900;10.774;2023-01-23T02:24:10;16.58;;;8.50;;
39502;SDS011;26970;49.900;10.774;2023-01-23T02:27:03;13.27;;;6.25;;
39502;SDS011;26970;49.900;10.774;2023-01-23T02:29:38;14.75;;;7.65;;
39502;SDS011;26970;49.900;10.774;2023-01-23T02:32:05;13.55;;;7.15;;
39502;SDS011;26970;49.900;10.774;2023-01-23T02:34:31;13.07;;;7.43;;
39502;SDS011;26970;49.900;10.774;2023-01-23T02:36:57;14.55;;;7.22;;
39502;SDS011;26970;49.900;10.774;2023-01-23T02:39:24;14.65;;;7.07;;
39502;SDS011;26970;49.900;10.774;2023-01-23T02:41:51;13.85;;;7.53;;
39502;SDS011;26970;49.900;10.774;2023-01-23T02:44:20;14.70;;;7.65;;
39502;SDS011;26970;49.900;10.774;2023-01-23T02:46:51;14.40;;;7.35;;
39502;SDS011;26970;49.900;10.774;2023-01-23T02:49:18;12.63;;;7.10;;
39502;SDS011;26970;49.900;10.774;2023-01-23T02:51:45;13.98;;;7.00;;
39502;SDS011;26970;49.900;10.774;2023-01-23T02:54:10;11.93;;;6.65;;
39502;SDS011;26970;49.900;10.774;2023-01-23T02:56:36;11.52;;;5.95;;
39502;SDS011;26970;49.900;10.774;2023-01-23T02:59:02;12.80;;;7.00;;
39502;SDS011;26970;49.900;10.774;2023-01-23T03:01:46;12.20;;;6.47;;
39502;SDS011;26970;49.900;10.774;2023-01-23T03:04:12;13.98;;;7.25;;
39502;SDS011;26970;49.900;10.774;2023-01-23T03:06:38;12.00;;;7.32;;
39502;SDS011;26970;49.900;10.774;2023-01-23T03:09:04;12.90;;;7.03;;
39502;SDS011;26970;49.900;10.774;2023-01-23T03:11:36;10.65;;;6.60;;
39502;SDS011;26970;49.900;10.774;2023-01-23T03:14:03;10.75;;;6.13;;
39502;SDS011;26970;49.900;10.774;2023-01-23T03:16:30;12.77;;;6.75;;
39502;SDS011;26970;49.900;10.774;2023-01-23T03:18:56;12.98;;;7.32;;
39502;SDS011;26970;49.900;10.774;2023-01-23T03:21:25;12.82;;;6.40;;
39502;SDS011;26970;49.900;10.774;2023-01-23T03:23:51;12.35;;;6.28;;
39502;SDS011;26970;49.900;10.774;2023-01-23T03:26:16;13.52;;;7.28;;
39502;SDS011;26970;49.900;10.774;2023-01-23T03:28:42;15.07;;;7.65;;
39502;SDS011;26970;49.900;10.774;2023-01-23T03:31:26;13.73;;;7.30;;
39502;SDS011;26970;49.900;10.774;2023-01-23T03:33:51;12.90;;;7.45;;
39502;SDS011;26970;49.900;10.774;2023-01-23T03:36:17;15.15;;;7.05;;
39502;SDS011;26970;49.900;10.774;2023-01-23T03:38:43;11.23;;;7.10;;
39502;SDS011;26970;49.900;10.774;2023-01-23T03:41:28;13.63;;;8.43;;
39502;SDS011;26970;49.900;10.774;2023-01-23T03:43:54;13.38;;;8.15;;
39502;SDS011;26970;49.900;10.774;2023-01-23T03:46:21;15.98;;;8.73;;
39502;SDS011;26970;49.900;10.774;2023-01-23T03:48:47;12.35;;;6.60;;
39502;SDS011;26970;49.900;10.774;2023-01-23T03:51:13;13.45;;;7.88;;
39502;SDS011;26970;49.900;10.774;2023-01-23T03:53:39;13.27;;;8.20;;
39502;SDS011;26970;49.900;10.774;2023-01-23T03:56:04;14.77;;;8.68;;
39502;SDS011;26970;49.900;10.774;2023-01-23T03:58:30;15.85;;;8.73;;
39502;SDS011;26970;49.900;10.774;2023-01-23T04:01:05;16.35;;;10.38;;
39502;SDS011;26970;49.900;10.774;2023-01-23T04:03:40;15.68;;;9.65;;
39502;SDS011;26970;49.900;10.774;2023-01-23T04:06:05;12.50;;;7.32;;
39502;SDS011;26970;49.900;10.774;2023-01-23T04:08:31;16.77;;;8.55;;
39502;SDS011;26970;49.900;10.774;2023-01-23T04:11:01;16.88;;;8.57;;
39502;SDS011;26970;49.900;10.774;2023-01-23T04:13:30;15.52;;;8.98;;
39502;SDS011;26970;49.900;10.774;2023-01-23T04:15:56;16.55;;;9.02;;
39502;SDS011;26970;49.900;10.774;2023-01-23T04:18:22;20.05;;;8.93;;
39502;SDS011;26970;49.900;10.774;2023-01-23T04:20:47;14.70;;;8.40;;
39502;SDS011;26970;49.900;10.774;2023-01-23T04:23:13;15.23;;;8.35;;
39502;SDS011;26970;49.900;10.774;2023-01-23T04:25:39;15.90;;;9.13;;
39502;SDS011;26970;49.900;10.774;2023-01-23T04:28:04;15.55;;;9.25;;
39502;SDS011;26970;49.900;10.774;2023-01-23T04:30:30;16.90;;;9.00;;
39502;SDS011;26970;49.900;10.774;2023-01-23T04:32:55;14.55;;;7.55;;
39502;SDS011;26970;49.900;10.774;2023-01-23T04:35:21;14.25;;;7.63;;
39502;SDS011;26970;49.900;10.774;2023-01-23T04:37:46;14.20;;;7.50;;
39502;SDS011;26970;49.900;10.774;2023-01-23T04:40:12;14.75;;;8.88;;
39502;SDS011;26970;49.900;10.774;2023-01-23T04:42:38;14.95;;;8.98;;
39502;SDS011;26970;49.900;10.774;2023-01-23T04:45:03;15.70;;;8.55;;
39502;SDS011;26970;49.900;10.774;2023-01-23T04:47:29;18.77;;;8.38;;
39502;SDS011;26970;49.900;10.774;2023-01-23T04:49:55;17.77;;;9.05;;
39502;SDS011;26970;49.900;10.774;2023-01-23T04:52:21;15.30;;;8.75;;
39502;SDS011;26970;49.900;10.774;2023-01-23T04:54:46;18.45;;;8.93;;
39502;SDS011;26970;49.900;10.774;2023-01-23T04:57:12;17.42;;;8.93;;
39502;SDS011;26970;49.900;10.774;2023-01-23T04:59:37;18.55;;;9.10;;
39502;SDS011;26970;49.900;10.774;2023-01-23T05:02:03;16.17;;;8.77;;
39502;SDS011;26970;49.900;10.774;2023-01-23T05:04:29;17.05;;;8.68;;
39502;SDS011;26970;49.900;10.774;2023-01-23T05:06:54;20.08;;;9.80;;
39502;SDS011;26970;49.900;10.774;2023-01-23T05:09:20;16.40;;;9.05;;
39502;SDS011;26970;49.900;10.774;2023-01-23T05:11:45;22.33;;;9.75;;
39502;SDS011;26970;49.900;10.774;2023-01-23T05:14:11;18.42;;;9.45;;
39502;SDS011;26970;49.900;10.774;2023-01-23T05:16:37;17.35;;;8.18;;
39502;SDS011;26970;49.900;10.774;2023-01-23T05:19:02;18.00;;;8.55;;
39502;SDS011;26970;49.900;10.774;2023-01-23T05:21:28;19.23;;;10.40;;
39502;SDS011;26970;49.900;10.774;2023-01-23T05:23:55;19.92;;;10.30;;
39502;SDS011;26970;49.900;10.774;2023-01-23T05:26:23;17.83;;;9.05;;
39502;SDS011;26970;49.900;10.774;2023-01-23T05:28:48;19.75;;;9.35;;
39502;SDS011;26970;49.900;10.774;2023-01-23T05:31:14;18.48;;;10.07;;
39502;SDS011;26970;49.900;10.774;2023-01-23T05:33:40;23.80;;;10.13;;
39502;SDS011;26970;49.900;10.774;2023-01-23T05:36:05;19.38;;;9.43;;
39502;SDS011;26970;49.900;10.774;2023-01-23T05:38:31;20.10;;;10.38;;
39502;SDS011;26970;49.900;10.774;2023-01-23T05:40:57;17.98;;;9.57;;
39502;SDS011;26970;49.900;10.774;2023-01-23T05:43:23;17.13;;;9.02;;
39502;SDS011;26970;49.900;10.774;2023-01-23T05:45:48;15.77;;;8.48;;
39502;SDS011;26970;49.900;10.774;2023-01-23T05:48:14;17.55;;;8.90;;
39502;SDS011;26970;49.900;10.774;2023-01-23T05:50:39;17.40;;;8.90;;
39502;SDS011;26970;49.900;10.774;2023-01-23T05:53:05;17.63;;;8.65;;
39502;SDS011;26970;49.900;10.774;2023-01-23T05:55:31;16.25;;;8.90;;
39502;SDS011;26970;49.900;10.774;2023-01-23T05:57:56;17.40;;;9.23;;
39502;SDS011;26970;49.900;10.774;2023-01-23T06:00:22;16.60;;;8.40;;
39502;SDS011;26970;49.900;10.774;2023-01-23T06:02:48;20.38;;;10.20;;
39502;SDS011;26970;49.900;10.774;2023-01-23T06:05:14;19.70;;;10.23;;
39502;SDS011;26970;49.900;10.774;2023-01-23T06:07:39;17.77;;;9.73;;
39502;SDS011;26970;49.900;10.774;2023-01-23T06:10:05;19.15;;;9.52;;
39502;SDS011;26970;49.900;10.774;2023-01-23T06:12:32;16.20;;;8.52;;
39502;SDS011;26970;49.900;10.774;2023-01-23T06:14:58;14.98;;;7.80;;
39502;SDS011;26970;49.900;10.774;2023-01-23T06:17:24;16.70;;;7.57;;
39502;SDS011;26970;49.900;10.774;2023-01-23T06:19:49;18.98;;;9.27;;
39502;SDS011;26970;49.900;10.774;2023-01-23T06:22:15;18.45;;;9.38;;
39502;SDS011;26970;49.900;10.774;2023-01-23T06:24:40;17.23;;;8.50;;
39502;SDS011;26970;49.900;10.774;2023-01-23T06:27:06;14.70;;;7.38;;
39502;SDS011;26970;49.900;10.774;2023-01-23T06:29:33;16.83;;;8.80;;
39502;SDS011;26970;49.900;10.774;2023-01-23T06:32:02;18.92;;;10.02;;
39502;SDS011;26970;49.900;10.774;2023-01-23T06:34:28;20.00;;;9.98;;
39502;SDS011;26970;49.900;10.774;2023-01-23T06:36:54;16.20;;;8.55;;
39502;SDS011;26970;49.900;10.774;2023-01-23T06:39:19;18.70;;;9.80;;
39502;SDS011;26970;49.900;10.774;2023-01-23T06:41:45;19.92;;;9.02;;
39502;SDS011;26970;49.900;10.774;2023-01-23T06:44:10;20.00;;;8.68;;
39502;SDS011;26970;49.900;10.774;2023-01-23T06:46:36;20.20;;;9.00;;
39502;SDS011;26970;49.900;10.774;2023-01-23T06:49:02;18.65;;;9.00;;
39502;SDS011;26970;49.900;10.774;2023-01-23T06:51:29;18.02;;;9.23;;
39502;SDS011;26970;49.900;10.774;2023-01-23T06:53:54;19.13;;;9.23;;
39502;SDS011;26970;49.900;10.774;2023-01-23T06:56:20;16.98;;;8.63;;
39502;SDS011;26970;49.900;10.774;2023-01-23T06:58:46;22.17;;;10.55;;
39502;SDS011;26970;49.900;10.774;2023-01-23T07:01:13;18.33;;;10.10;;
39502;SDS011;26970;49.900;10.774;2023-01-23T07:03:41;21.02;;;10.15;;
39502;SDS011;26970;49.900;10.774;2023-01-23T07:06:08;22.17;;;11.32;;
39502;SDS011;26970;49.900;10.774;2023-01-23T07:08:35;19.42;;;11.00;;
39502;SDS011;26970;49.900;10.774;2023-01-23T07:11:01;21.08;;;11.38;;
39502;SDS011;26970;49.900;10.774;2023-01-23T07:13:27;21.80;;;11.18;;
39502;SDS011;26970;49.900;10.774;2023-01-23T07:15:53;23.30;;;9.95;;
39502;SDS011;26970;49.900;10.774;2023-01-23T07:18:19;22.25;;;11.65;;
39502;SDS011;26970;49.900;10.774;2023-01-23T07:20:45;23.02;;;11.18;;
39502;SDS011;26970;49.900;10.774;2023-01-23T07:23:11;22.05;;;11.13;;
39502;SDS011;26970;49.900;10.774;2023-01-23T07:25:37;25.42;;;10.55;;
39502;SDS011;26970;49.900;10.774;2023-01-23T07:28:03;19.15;;;10.52;;
39502;SDS011;26970;49.900;10.774;2023-01-23T07:30:30;20.13;;;9.93;;
39502;SDS011;26970;49.900;10.774;2023-01-23T07:32:56;19.60;;;10.88;;
39502;SDS011;26970;49.900;10.774;2023-01-23T07:35:22;23.33;;;12.70;;
39502;SDS011;26970;49.900;10.774;2023-01-23T07:37:48;18.65;;;10.60;;
39502;SDS011;26970;49.900;10.774;2023-01-23T07:40:14;16.45;;;9.48;;
39502;SDS011;26970;49.900;10.774;2023-01-23T07:42:40;19.05;;;9.40;;
39502;SDS011;26970;49.900;10.774;2023-01-23T07:45:06;18.63;;;10.18;;
39502;SDS011;26970;49.900;10.774;2023-01-23T07:47:33;17.92;;;9.73;;
39502;SDS011;26970;49.900;10.774;2023-01-23T07:50:00;19.10;;;9.15;;
39502;SDS011;26970;49.900;10.774;2023-01-23T07:52:26;18.90;;;10.32;;
39502;SDS011;26970;49.900;10.774;2023-01-23T07:54:51;17.98;;;9.32;;
39502;SDS011;26970;49.900;10.774;2023-01-23T07:57:17;18.00;;;10.18;;
39502;SDS011;26970;49.900;10.774;2023-01-23T07:59:42;21.52;;;11.50;;
39502;SDS011;26970;49.900;10.774;2023-01-23T08:02:10;18.67;;;9.80;;
39502;SDS011;26970;49.900;10.774;2023-01-23T08:04:36;20.55;;;10.82;;
39502;SDS011;26970;49.900;10.774;2023-01-23T08:07:02;19.77;;;10.07;;
39502;SDS011;26970;49.900;10.774;2023-01-23T08:09:28;21.02;;;10.95;;
39502;SDS011;26970;49.900;10.774;2023-01-23T08:11:54;18.20;;;9.77;;
39502;SDS011;26970;49.900;10.774;2023-01-23T08:14:19;20.17;;;10.23;;
39502;SDS011;26970;49.900;10.774;2023-01-23T08:16:49;22.48;;;10.90;;
39502;SDS011;26970;49.900;10.774;2023-01-23T08:19:15;20.05;;;10.57;;
39502;SDS011;26970;49.900;10.774;2023-01-23T08:21:42;17.50;;;9.50;;
39502;SDS011;26970;49.900;10.774;2023-01-23T08:24:08;21.35;;;10.50;;
39502;SDS011;26970;49.900;10.774;2023-01-23T08:26:35;20.20;;;10.27;;
39502;SDS011;26970;49.900;10.774;2023-01-23T08:29:01;18.73;;;10.88;;
39502;SDS011;26970;49.900;10.774;2023-01-23T08:31:26;15.05;;;9.02;;
39502;SDS011;26970;49.900;10.774;2023-01-23T08:33:52;19.00;;;9.70;;
39502;SDS011;26970;49.900;10.774;2023-01-23T08:36:17;16.95;;;8.82;;
39502;SDS011;26970;49.900;10.774;2023-01-23T08:38:43;26.67;;;13.32;;
39502;SDS011;26970;49.900;10.774;2023-01-23T08:41:09;24.55;;;11.60;;
39502;SDS011;26970;49.900;10.774;2023-01-23T08:43:35;21.52;;;11.25;;
39502;SDS011;26970;49.900;10.774;2023-01-23T08:46:02;25.42;;;12.18;;
39502;SDS011;26970;49.900;10.774;2023-01-23T08:48:28;20.30;;;10.48;;
39502;SDS011;26970;49.900;10.774;2023-01-23T08:50:57;25.15;;;12.40;;
39502;SDS011;26970;49.900;10.774;2023-01-23T08:53:27;21.48;;;11.23;;
39502;SDS011;26970;49.900;10.774;2023-01-23T08:55:57;24.30;;;11.93;;
39502;SDS011;26970;49.900;10.774;2023-01-23T08:58:26;23.33;;;11.20;;
39502;SDS011;26970;49.900;10.774;2023-01-23T09:00:52;26.20;;;12.73;;
39502;SDS011;26970;49.900;10.774;2023-01-23T09:03:18;24.58;;;12.02;;
39502;SDS011;26970;49.900;10.774;2023-01-23T09:05:43;18.45;;;9.68;;
39502;SDS011;26970;49.900;10.774;2023-01-23T09:08:09;22.98;;;11.38;;
39502;SDS011;26970;49.900;10.774;2023-01-23T09:10:35;18.27;;;9.65;;
39502;SDS011;26970;49.900;10.774;2023-01-23T09:13:01;27.25;;;12.77;;
39502;SDS011;26970;49.900;10.774;2023-01-23T09:15:36;30.90;;;14.82;;
39502;SDS011;26970;49.900;10.774;2023-01-23T09:18:03;28.70;;;14.02;;
39502;SDS011;26970;49.900;10.774;2023-01-23T09:20:29;23.17;;;13.55;;
39502;SDS011;26970;49.900;10.774;2023-01-23T09:22:54;19.80;;;10.57;;
39502;SDS011;26970;49.900;10.774;2023-01-23T09:25:20;18.58;;;10.35;;
39502;SDS011;26970;49.900;10.774;2023-01-23T09:27:46;21.33;;;11.48;;
39502;SDS011;26970;49.900;10.774;2023-01-23T09:30:12;23.23;;;12.20;;
39502;SDS011;26970;49.900;10.774;2023-01-23T09:32:38;19.50;;;10.98;;
39502;SDS011;26970;49.900;10.774;2023-01-23T09:35:03;18.83;;;10.77;;
39502;SDS011;26970;49.900;10.774;2023-01-23T09:37:29;25.70;;;12.55;;
39502;SDS011;26970;49.900;10.774;2023-01-23T09:40:16;21.60;;;10.38;;
39502;SDS011;26970;49.900;10.774;2023-01-23T09:42:43;15.82;;;9.23;;
39502;SDS011;26970;49.900;10.774;2023-01-23T09:45:10;22.05;;;11.10;;
39502;SDS011;26970;49.900;10.774;2023-01-23T09:47:45;21.95;;;10.10;;
39502;SDS011;26970;49.900;10.774;2023-01-23T09:50:26;20.30;;;10.70;;
39502;SDS011;26970;49.900;10.774;2023-01-23T09:52:59;19.02;;;11.05;;
39502;SDS011;26970;49.900;10.774;2023-01-23T09:58:00;15.00;;;8.10;;
39502;SDS011;26970;49.900;10.774;2023-01-23T10:00:29;21.67;;;11.48;;
39502;SDS011;26970;49.900;10.774;2023-01-23T10:02:59;19.48;;;10.25;;
39502;SDS011;26970;49.900;10.774;2023-01-23T10:05:32;23.17;;;11.82;;
39502;SDS011;26970;49.900;10.774;2023-01-23T10:11:00;27.10;;;13.00;;
39502;SDS011;26970;49.900;10.774;2023-01-23T10:19:23;24.42;;;11.13;;
39502;SDS011;26970;49.900;10.774;2023-01-23T10:22:21;17.15;;;9.02;;
39502;SDS011;26970;49.900;10.774;2023-01-23T10:25:01;17.52;;;8.70;;
39502;SDS011;26970;49.900;10.774;2023-01-23T10:27:38;19.58;;;9.57;;
39502;SDS011;26970;49.900;10.774;2023-01-23T10:41:08;22.67;;;10.43;;
39502;SDS011;26970;49.900;10.774;2023-01-23T10:43:39;18.23;;;9.50;;
39502;SDS011;26970;49.900;10.774;2023-01-23T10:46:17;17.63;;;9.57;;
39502;SDS011;26970;49.900;10.774;2023-01-23T10:51:28;14.95;;;7.93;;
39502;SDS011;26970;49.900;10.774;2023-01-23T10:56:29;21.02;;;10.70;;
39502;SDS011;26970;49.900;10.774;2023-01-23T10:58:57;17.85;;;9.63;;
39502;SDS011;26970;49.900;10.774;2023-01-23T11:01:26;16.73;;;9.15;;
39502;SDS011;26970;49.900;10.774;2023-01-23T11:03:54;20.33;;;9.77;;
39502;SDS011;26970;49.900;10.774;2023-01-23T11:06:21;20.30;;;11.30;;
39502;SDS011;26970;49.900;10.774;2023-01-23T11:11:26;21.85;;;11.18;;
39502;SDS011;26970;49.900;10.774;2023-01-23T11:14:08;23.63;;;11.70;;
39502;SDS011;26970;49.900;10.774;2023-01-23T11:16:37;14.13;;;6.97;;
39502;SDS011;26970;49.900;10.774;2023-01-23T11:21:36;15.77;;;8.05;;
39502;SDS011;26970;49.900;10.774;2023-01-23T11:26:46;23.05;;;11.70;;
39502;SDS011;26970;49.900;10.774;2023-01-23T11:29:19;22.05;;;11.85;;
39502;SDS011;26970;49.900;10.774;2023-01-23T11:31:49;16.13;;;8.23;;
39502;SDS011;26970;49.900;10.774;2023-01-23T11:34:23;14.43;;;8.52;;
39502;SDS011;26970;49.900;10.774;2023-01-23T11:42:20;17.25;;;8.57;;
39502;SDS011;26970;49.900;10.774;2023-01-23T11:44:48;17.40;;;8.52;;
39502;SDS011;26970;49.900;10.774;2023-01-23T11:50:38;13.77;;;6.60;;
39502;SDS011;26970;49.900;10.774;2023-01-23T11:56:02;18.73;;;10.27;;
39502;SDS011;26970;49.900;10.774;2023-01-23T12:07:26;13.23;;;7.40;;
39502;SDS011;26970;49.900;10.774;2023-01-23T12:10:40;14.77;;;6.55;;
39502;SDS011;26970;49.900;10.774;2023-01-23T12:18:15;9.57;;;4.65;;
39502;SDS011;26970;49.900;10.774;2023-01-23T12:23:43;13.18;;;7.05;;
39502;SDS011;26970;49.900;10.774;2023-01-23T12:26:20;9.02;;;5.57;;
39502;SDS011;26970;49.900;10.774;2023-01-23T12:31:55;9.45;;;5.28;;
39502;SDS011;26970;49.900;10.774;2023-01-23T12:34:37;11.23;;;5.28;;
39502;SDS011;26970;49.900;10.774;2023-01-23T12:37:15;9.65;;;5.70;;
39502;SDS011;26970;49.900;10.774;2023-01-23T12:40:00;15.18;;;6.22;;
39502;SDS011;26970;49.900;10.774;2023-01-23T12:43:00;13.55;;;6.47;;
39502;SDS011;26970;49.900;10.774;2023-01-23T12:45:31;13.23;;;7.45;;
39502;SDS011;26970;49.900;10.774;2023-01-23T12:50:49;9.70;;;5.18;;
39502;SDS011;26970;49.900;10.774;2023-01-23T12:53:18;17.38;;;6.22;;
39502;SDS011;26970;49.900;10.774;2023-01-23T12:58:35;9.63;;;4.70;;
39502;SDS011;26970;49.900;10.774;2023-01-23T13:10:20;9.70;;;4.93;;
39502;SDS011;26970;49.900;10.774;2023-01-23T13:13:27;10.45;;;5.60;;
39502;SDS011;26970;49.900;10.774;2023-01-23T13:16:00;13.13;;;7.10;;
39502;SDS011;26970;49.900;10.774;2023-01-23T13:18:29;9.13;;;5.07;;
39502;SDS011;26970;49.900;10.774;2023-01-23T13:21:14;12.75;;;6.38;;
39502;SDS011;26970;49.900;10.774;2023-01-23T13:24:27;11.00;;;6.38;;
39502;SDS011;26970;49.900;10.774;2023-01-23T13:32:56;10.27;;;5.90;;
39502;SDS011;26970;49.900;10.774;2023-01-23T13:52:15;9.68;;;5.75;;
39502;SDS011;26970;49.900;10.774;2023-01-23T13:55:24;9.02;;;5.55;;
39502;SDS011;26970;49.900;10.774;2023-01-23T13:58:20;8.88;;;5.10;;
39502;SDS011;26970;49.900;10.774;2023-01-23T14:00:54;7.38;;;4.05;;
39502;SDS011;26970;49.900;10.774;2023-01-23T14:04:04;10.98;;;6.85;;
39502;SDS011;26970;49.900;10.774;2023-01-23T14:06:56;9.55;;;4.93;;
39502;SDS011;26970;49.900;10.774;2023-01-23T14:09:23;8.40;;;5.55;;
39502;SDS011;26970;49.900;10.774;2023-01-23T14:11:57;11.68;;;6.18;;
39502;SDS011;26970;49.900;10.774;2023-01-23T14:14:23;10.60;;;5.13;;
39502;SDS011;26970;49.900;10.774;2023-01-23T14:17:08;9.10;;;5.20;;
39502;SDS011;26970;49.900;10.774;2023-01-23T14:19:37;6.57;;;4.55;;
39502;SDS011;26970;49.900;10.774;2023-01-23T14:22:41;9.40;;;3.60;;
39502;SDS011;26970;49.900;10.774;2023-01-23T14:25:13;6.90;;;3.50;;
39502;SDS011;26970;49.900;10.774;2023-01-23T14:27:42;7.65;;;3.70;;
39502;SDS011;26970;49.900;10.774;2023-01-23T14:30:13;7.47;;;3.97;;
39502;SDS011;26970;49.900;10.774;2023-01-23T14:32:40;5.85;;;3.40;;
39502;SDS011;26970;49.900;10.774;2023-01-23T14:35:16;6.97;;;4.40;;
39502;SDS011;26970;49.900;10.774;2023-01-23T14:37:46;8.32;;;4.85;;
39502;SDS011;26970;49.900;10.774;2023-01-23T14:40:14;10.68;;;5.85;;
39502;SDS011;26970;49.900;10.774;2023-01-23T14:42:44;10.43;;;5.53;;
39502;SDS011;26970;49.900;10.774;2023-01-23T14:45:14;7.53;;;3.80;;
39502;SDS011;26970;49.900;10.774;2023-01-23T14:47:41;8.32;;;5.07;;
39502;SDS011;26970;49.900;10.774;2023-01-23T14:50:09;11.55;;;4.22;;
39502;SDS011;26970;49.900;10.774;2023-01-23T14:52:40;7.03;;;4.45;;
39502;SDS011;26970;49.900;10.774;2023-01-23T14:55:22;8.00;;;4.88;;
39502;SDS011;26970;49.900;10.774;2023-01-23T14:57:50;7.55;;;3.70;;
39502;SDS011;26970;49.900;10.774;2023-01-23T15:00:18;12.45;;;5.97;;
39502;SDS011;26970;49.900;10.774;2023-01-23T15:02:45;6.50;;;3.10;;
39502;SDS011;26970;49.900;10.774;2023-01-23T15:13:10;11.40;;;6.47;;
39502;SDS011;26970;49.900;10.774;2023-01-23T15:15:46;8.70;;;5.20;;
39502;SDS011;26970;49.900;10.774;2023-01-23T15:18:28;12.90;;;6.00;;
39502;SDS011;26970;49.900;10.774;2023-01-23T15:20:56;12.63;;;7.22;;
39502;SDS011;26970;49.900;10.774;2023-01-23T15:23:27;10.60;;;6.35;;
39502;SDS011;26970;49.900;10.774;2023-01-23T15:39:51;11.30;;;7.30;;
39502;SDS011;26970;49.900;10.774;2023-01-23T15:42:37;14.52;;;7.50;;
39502;SDS011;26970;49.900;10.774;2023-01-23T15:45:29;15.32;;;8.10;;
39502;SDS011;26970;49.900;10.774;2023-01-23T15:47:59;15.15;;;8.13;;
39502;SDS011;26970;49.900;10.774;2023-01-23T15:50:41;9.73;;;5.68;;
39502;SDS011;26970;49.900;10.774;2023-01-23T15:53:11;10.45;;;6.32;;
39502;SDS011;26970;49.900;10.774;2023-01-23T15:55:38;14.93;;;7.82;;
39502;SDS011;26970;49.900;10.774;2023-01-23T15:58:05;12.45;;;7.53;;
39502;SDS011;26970;49.900;10.774;2023-01-23T16:00:33;13.95;;;7.82;;
39502;SDS011;26970;49.900;10.774;2023-01-23T16:02:59;12.27;;;5.32;;
39502;SDS011;26970;49.900;10.774;2023-01-23T16:05:26;12.98;;;7.40;;
39502;SDS011;26970;49.900;10.774;2023-01-23T16:08:02;12.18;;;7.35;;
39502;SDS011;26970;49.900;10.774;2023-01-23T16:10:55;15.48;;;8.40;;
39502;SDS011;26970;49.900;10.774;2023-01-23T16:13:21;9.88;;;5.43;;
39502;SDS011;26970;49.900;10.774;2023-01-23T16:15:49;12.35;;;7.72;;
39502;SDS011;26970;49.900;10.774;2023-01-23T16:18:19;9.90;;;6.40;;
39502;SDS011;26970;49.900;10.774;2023-01-23T16:20:44;12.35;;;6.60;;
39502;SDS011;26970;49.900;10.774;2023-01-23T16:25:38;13.18;;;7.50;;
39502;SDS011;26970;49.900;10.774;2023-01-23T16:28:04;13.85;;;7.32;;
39502;SDS011;26970;49.900;10.774;2023-01-23T16:30:30;13.15;;;7.72;;
39502;SDS011;26970;49.900;10.774;2023-01-23T16:32:56;8.15;;;4.85;;
39502;SDS011;26970;49.900;10.774;2023-01-23T16:35:22;16.70;;;9.02;;
39502;SDS011;26970;49.900;10.774;2023-01-23T16:37:49;13.45;;;7.63;;
39502;SDS011;26970;49.900;10.774;2023-01-23T16:40:20;17.98;;;9.18;;
39502;SDS011;26970;49.900;10.774;2023-01-23T16:42:48;16.77;;;7.68;;
39502;SDS011;26970;49.900;10.774;2023-01-23T16:45:19;13.23;;;6.03;;
39502;SDS011;26970;49.900;10.774;2023-01-23T16:47:46;18.75;;;9.27;;